Bryant, Alabama
Current Conditions -  °F | °C
As of 3:53 AM on Saturday 01 Nov 2014 (Local Time) from KCHA Reporting Station
Overcast Overcast  
Wind Chill: 29°   Ceiling: 4200
Heat Index: 38°   Visibility: 10mi
Dew Point: 31°   Wind: 17mph
Humidity: 76%   Direction: 320°NW
Pressure: 30.02"   Gusts: 26mph
Location:  34.94°N, 85.63°W
Report Text: KCHA 010853Z AUTO 32015G23KT 10SM SCT029 BKN042 OVC100 03/M01 A3002 RMK AO2 RAB14E24 SLP167 P0000 60000 T00331006 55003
Loading
Personal Weather Stations






























Interactive Weather Map
Tropical Storm Tracking
New forecast layout! Learn more

10-Day Weather Forecast

Advertisements
Track Severe Weather on mobile